Latest Coastal Weather Observations for Lockhart River

IDQ60701

Issued at 4:32 pm EST Thursday 5 March 2015 (issued every 10 minutes, with the page automatically refreshed every 10 minutes)

About coastal observations | Map of coastal stations | Coastal observations for QLD | Marine services | Other Formats
Station Details ID: 028008 Name: LOCKHART RIVER AIRPORT Lat: -12.79 Lon: 143.30 Height: 18.5 m
Data from the previous 72 hours. | See also: Recent months at Lockhart River
Date/Time
EST
Temp

°C
Wind Pressure Rain
since 9am
mm
Weather Cloud Vis
km
Sea
Height
m
Swell
Dir
 
Speed
knots
Gust
knots
hPa Trend Height
m
Period
s
Dir
05/04:30pm 27.8 ENE 6 9 1005.6 - 4.6 - Partly cloudy - - - - -
05/04:00pm 27.3 ENE 5 7 1005.8 - 4.6 - Partly cloudy - - - - -
05/03:30pm 28.4 ENE 5 9 1006.0 - 4.4 - Partly cloudy - - - - -
05/03:00pm 27.6 NE 13 17 1005.9 - 4.4 Fine Mostly cloudy 18 - - - -
05/02:30pm 29.4 E 9 13 1006.2 - 4.4 - Partly cloudy - - - - -
05/02:00pm 29.4 E 8 15 1006.6 - 4.4 - Partly cloudy - - - - -
05/01:30pm 28.9 E 10 14 1007.1 - 4.4 - Partly cloudy - - - - -
05/01:00pm 29.2 E 9 12 1007.7 - 4.4 - Partly cloudy - - - - -
05/12:30pm 28.2 ENE 7 9 1008.2 - 4.4 - Partly cloudy - - - - -
05/12:00pm 28.1 NNW 3 6 1008.5 - 4.4 - Partly cloudy - - - - -
05/11:30am 26.7 NW 3 4 1009.2 - 4.4 - Partly cloudy - - - - -
05/11:00am 25.6 NE 2 6 1009.5 - 4.4 - Partly cloudy - - - - -
05/10:30am 28.4 E 5 8 1009.4 - 0.0 - Partly cloudy - - - - -
05/10:00am 28.2 CALM 0 1 1009.4 - 0.0 - Partly cloudy - - - - -
05/09:30am 27.9 SSE 6 7 1009.6 - 0.0 - Partly cloudy - - - - -
05/09:00am 27.0 W 2 6 1009.7 - 12.2 Fine Mostly cloudy 18 - - - -
05/08:30am 26.2 WNW 3 4 1009.4 - 12.2 - Partly cloudy - - - - -
05/08:00am 25.5 CALM 0 3 1009.2 - 12.2 - - - - - - -
05/07:30am 24.6 CALM 0 2 1009.1 - 12.2 - Partly cloudy - - - - -
05/07:00am 24.3 W 3 6 1008.8 - 12.2 - - - - - - -
05/06:30am 24.1 NW 3 5 1008.4 - 12.2 - - - - - - -
05/06:00am 24.4 N 2 4 1007.8 - 12.2 - Partly cloudy - - - - -
05/05:30am 24.3 NNW 4 6 1007.6 - 12.2 - Partly cloudy - - - - -
05/05:00am 24.2 CALM 0 0 1007.5 - 11.2 - Partly cloudy - - - - -
05/04:30am 24.1 WNW 3 3 1007.2 - 11.2 - Partly cloudy - - - - -
05/04:00am 24.2 CALM 0 4 1007.0 - 11.2 - - - - - - -
05/03:30am 24.5 NNW 4 5 1007.2 - 11.2 - Partly cloudy - - - - -
05/03:00am 24.7 CALM 0 0 1007.6 - 10.8 - Partly cloudy - - - - -
05/02:30am 24.9 WNW 2 4 1008.0 - 10.8 - Partly cloudy - - - - -
05/02:00am 25.1 W 4 4 1008.1 - 10.8 - Partly cloudy - - - - -
05/01:30am 25.1 NNE 4 6 1008.9 - 10.4 - Partly cloudy - - - - -
05/01:00am 25.2 CALM 0 0 1008.8 - 6.0 - Partly cloudy - - - - -
05/12:30am 25.4 WNW 2 3 1009.2 - 6.0 - Partly cloudy - - - - -
05/12:02am 25.6 CALM 0 3 1009.4 - 5.8 - Partly cloudy - - - - -
05/12:00am 25.6 SE 1 6 1009.3 - 5.8 - Partly cloudy - - - - -
 
Date/Time
EST
Temp

°C
Wind Pressure Rain
since 9am
mm
Weather Cloud Vis
km
Sea
Height
m
Swell
Dir
 
Speed
knots
Gust
knots
hPa Trend Height
m
Period
s
Dir
04/11:45pm 25.5 N 1 6 1009.6 - 5.4 - Partly cloudy - - - - -
04/11:30pm 25.7 CALM 0 0 1009.7 - 2.6 - Partly cloudy - - - - -
04/11:00pm 25.4 CALM 0 0 1009.8 - 1.8 - Partly cloudy - - - - -
04/10:30pm 25.4 NW 1 4 1009.8 - 1.8 - Partly cloudy - - - - -
04/10:00pm 25.4 CALM 0 0 1009.3 - 1.8 - Partly cloudy - - - - -
04/09:30pm 25.6 CALM 0 0 1009.2 - 1.8 - Partly cloudy - - - - -
04/09:00pm 25.7 CALM 0 0 1008.7 - 1.8 - Partly cloudy - - - - -
04/08:30pm 25.6 WNW 4 5 1008.4 - 1.8 - - - - - - -
04/08:00pm 26.2 CALM 0 0 1008.1 - 1.8 - Partly cloudy - - - - -
04/07:30pm 26.2 CALM 0 0 1007.7 - 1.8 - Partly cloudy - - - - -
04/07:00pm 26.4 E 8 11 1007.3 - 1.6 - Partly cloudy - - - - -
04/06:30pm 27.8 ENE 6 9 1006.6 - 0.2 - Partly cloudy - - - - -
04/06:00pm 28.1 ENE 6 9 1006.3 - 0.2 - Partly cloudy - - - - -
04/05:30pm 28.8 E 7 11 1006.2 - 0.2 - Partly cloudy - - - - -
04/05:00pm 28.8 E 6 11 1006.3 - 0.2 - Partly cloudy - - - - -
04/04:30pm 29.0 E 8 13 1006.2 - 0.2 - Partly cloudy - - - - -
04/04:00pm 30.1 E 10 14 1006.2 - 0.2 - Partly cloudy - - - - -
04/03:30pm 30.2 ENE 10 14 1006.3 - 0.2 - Partly cloudy - - - - -
04/03:00pm 30.5 E 9 16 1006.4 - 0.2 Fine Mostly cloudy 25 - - - -
04/02:30pm 29.4 ESE 11 15 1006.9 - 0.2 - Partly cloudy - - - - -
04/02:00pm 30.8 E 11 15 1007.2 - 0.2 - Partly cloudy - - - - -
04/01:30pm 30.8 E 9 13 1007.6 - 0.2 - Partly cloudy - - - - -
04/01:00pm 30.6 E 11 16 1007.9 - 0.2 - Partly cloudy - - - - -
04/12:30pm 30.6 E 10 14 1008.4 - 0.2 - Partly cloudy - - - - -
04/12:00pm 30.7 ENE 9 13 1008.5 - 0.2 - Partly cloudy - - - - -
04/11:30am 30.4 E 9 14 1009.0 - 0.2 - - - - - - -
04/11:00am 30.4 E 8 14 1009.3 - 0.2 - Partly cloudy - - - - -
04/10:30am 30.0 E 7 12 1009.4 - 0.2 - Partly cloudy - - - - -
04/10:00am 28.4 WNW 1 4 1009.7 - 0.0 - Partly cloudy - - - - -
04/09:30am 27.7 NW 6 7 1009.5 - 0.0 - Partly cloudy - - - - -
04/09:00am 27.3 NW 3 5 1009.4 - 1.0 Fine Mostly cloudy 25 - - - -
04/08:30am 26.7 W 4 5 1009.3 - 1.0 - Partly cloudy - - - - -
04/08:00am 24.9 NE 3 6 1009.0 - 1.0 - Partly cloudy - - - - -
04/07:30am 23.6 NW 3 4 1008.6 - 1.0 - Partly cloudy - - - - -
04/07:00am 23.3 CALM 0 0 1008.3 - 1.0 - Partly cloudy - - - - -
04/06:30am 23.2 CALM 0 0 1008.1 - 0.0 - Partly cloudy - - - - -
04/06:00am 23.2 CALM 0 2 1007.9 - 0.0 - - - - - - -
04/05:30am 23.4 NW 3 4 1007.8 - 0.0 - Partly cloudy - - - - -
04/05:00am 23.4 WNW 3 4 1007.5 - 0.0 - Partly cloudy - - - - -
04/04:30am 23.6 NW 2 4 1007.3 - 0.0 - - - - - - -
04/04:00am 23.8 CALM 0 0 1007.3 - 0.0 - - - - - - -
04/03:30am 24.4 CALM 0 0 1007.5 - 0.0 - Partly cloudy - - - - -
04/03:00am 24.5 SW 3 4 1007.5 - 0.0 - Partly cloudy - - - - -
04/02:30am 24.3 CALM 0 0 1007.8 - 0.0 - Partly cloudy - - - - -
04/02:00am 24.2 CALM 0 0 1008.1 - 0.0 - - - - - - -
04/01:30am 24.6 CALM 0 0 1008.3 - 0.0 - Partly cloudy - - - - -
04/01:00am 24.6 CALM 0 0 1008.6 - 0.0 - Partly cloudy - - - - -
04/12:30am 24.5 CALM 0 0 1008.9 - 0.0 - - - - - - -
04/12:00am 24.7 CALM 0 3 1009.0 - 0.0 - - - - - - -
 
Date/Time
EST
Temp

°C
Wind Pressure Rain
since 9am
mm
Weather Cloud Vis
km
Sea
Height
m
Swell
Dir
 
Speed
knots
Gust
knots
hPa Trend Height
m
Period
s
Dir
03/11:30pm 25.2 CALM 0 0 1009.2 - 0.0 - Partly cloudy - - - - -
03/11:00pm 25.7 CALM 0 0 1009.4 - 0.0 - Partly cloudy - - - - -
03/10:30pm 25.3 CALM 0 0 1009.4 - 0.0 - Partly cloudy - - - - -
03/10:00pm 25.5 CALM 0 0 1009.2 - 0.0 - - - - - - -
03/09:30pm 26.5 S 3 4 1008.9 - 0.0 - - - - - - -
03/09:00pm 26.5 CALM 0 0 1008.6 - 0.0 - Partly cloudy - - - - -
03/08:30pm 27.7 ESE 4 7 1008.4 - 0.0 - Partly cloudy - - - - -
03/08:00pm 27.4 SE 1 4 1008.1 - 0.0 - Partly cloudy - - - - -
03/07:30pm 27.8 E 1 3 1007.6 - 0.0 - Partly cloudy - - - - -
03/07:00pm 28.3 E 3 5 1007.3 - 0.0 - Partly cloudy - - - - -
03/06:30pm 29.0 E 5 7 1006.9 - 0.0 - Partly cloudy - - - - -
03/06:00pm 29.5 E 7 10 1006.4 - 0.0 - - - - - - -
03/05:30pm 30.1 E 10 12 1006.4 - 0.0 - - - - - - -
03/05:00pm 30.4 ESE 10 13 1006.4 - 0.0 - - - - - - -
03/04:30pm 30.4 E 8 13 1006.2 - 0.0 - - - - - - -
03/04:00pm 30.9 E 7 10 1006.3 - 0.0 - - - - - - -
03/03:30pm 30.7 E 8 14 1006.5 - 0.0 - - - - - - -
03/03:00pm 30.7 E 9 14 1006.7 - 0.0 Fine Partly cloudy 30 - - - -
03/02:30pm 30.9 E 9 13 1007.1 - 0.0 - Partly cloudy - - - - -
03/02:00pm 30.7 ENE 9 13 1007.4 - 0.0 - Partly cloudy - - - - -
03/01:30pm 31.2 E 8 11 1007.6 - 0.0 - - - - - - -
03/01:00pm 30.8 E 9 14 1007.9 - 0.0 - - - - - - -
03/12:30pm 30.5 E 9 13 1008.3 - 0.0 - Partly cloudy - - - - -
03/12:00pm 30.3 E 9 14 1008.7 - 0.0 - Partly cloudy - - - - -
03/11:30am 30.3 ENE 8 11 1009.1 - 0.0 - - - - - - -
03/11:00am 30.6 ESE 9 15 1009.5 - 0.0 - - - - - - -
03/10:30am 30.3 E 9 12 1009.7 - 0.0 - Partly cloudy - - - - -
03/10:00am 29.8 ESE 7 10 1009.8 - 0.0 - Partly cloudy - - - - -
03/09:36am 29.2 ESE 7 11 1009.9 - 0.0 - Partly cloudy - - - - -
03/09:30am 29.8 ESE 5 10 1009.8 - 0.0 - Partly cloudy - - - - -
03/09:20am 29.1 E 2 6 1009.8 - 0.0 - Partly cloudy - - - - -
03/09:13am 28.7 NE 2 4 1009.8 - 0.0 - Partly cloudy - - - - -
03/09:00am 28.0 NW 1 3 1009.6 - 0.0 - Partly cloudy - - - - -
03/08:50am 27.5 NNW 4 5 1009.7 - 0.0 - Partly cloudy - - - - -
03/08:30am 27.4 NW 2 4 1009.7 - 0.0 - Partly cloudy - - - - -
03/08:00am 26.0 CALM 0 0 1009.4 - 0.0 - Partly cloudy - - - - -
03/07:30am 24.8 CALM 0 0 1009.0 - 0.0 - Partly cloudy - - - - -
03/07:00am 24.0 CALM 0 0 1008.6 - 0.0 - - - - - - -
03/06:30am 23.8 N 1 3 1008.3 - 0.0 - - - - - - -
03/06:00am 24.0 CALM 0 0 1007.9 - 0.0 - Partly cloudy - - - - -
03/05:30am 24.2 CALM 0 0 1007.7 - 0.0 - Partly cloudy - - - - -
03/05:00am 24.4 CALM 0 0 1007.3 - 0.0 - Partly cloudy - - - - -
03/04:30am 24.5 CALM 0 0 1007.1 - 0.0 - Partly cloudy - - - - -
03/04:00am 24.4 CALM 0 0 1006.9 - 0.0 - Partly cloudy - - - - -
03/03:58am 24.4 CALM 0 0 1006.9 - 0.0 - Partly cloudy - - - - -
03/03:48am 24.3 CALM 0 0 1007.0 - 0.0 - Partly cloudy - - - - -
03/03:42am 24.2 CALM 0 0 1007.1 - 0.0 - Partly cloudy - - - - -
03/03:30am 24.2 CALM 0 0 1007.0 - 0.0 - Partly cloudy - - - - -
03/03:00am 24.5 CALM 0 0 1007.0 - 0.0 - Partly cloudy - - - - -
03/02:49am 24.3 CALM 0 0 1007.2 - 0.0 - Partly cloudy - - - - -
03/02:30am 24.5 CALM 0 0 1007.2 - 0.0 - Partly cloudy - - - - -
03/02:00am 24.5 CALM 0 0 1007.7 - 0.0 - Partly cloudy - - - - -
03/01:58am 24.4 CALM 0 0 1007.7 - 0.0 - Partly cloudy - - - - -
03/01:30am 24.2 NW 1 4 1007.9 - 0.0 - Partly cloudy - - - - -
03/01:00am 24.3 CALM 0 0 1008.1 - 0.0 - - - - - - -
03/12:30am 24.6 CALM 0 0 1008.4 - 0.0 - Partly cloudy - - - - -
03/12:00am 24.6 CALM 0 0 1008.5 - 0.0 - Partly cloudy - - - - -
 
Date/Time
EST
Temp

°C
Wind Pressure Rain
since 9am
mm
Weather Cloud Vis
km
Sea
Height
m
Swell
Dir
 
Speed
knots
Gust
knots
hPa Trend Height
m
Period
s
Dir
02/11:30pm 24.6 CALM 0 0 1008.5 - 0.0 - Partly cloudy - - - - -
02/11:00pm 24.7 CALM 0 0 1008.3 - 0.0 - - - - - - -
02/10:30pm 25.1 CALM 0 0 1008.2 - 0.0 - - - - - - -
02/10:00pm 25.2 CALM 0 0 1008.1 - 0.0 - - - - - - -
02/09:30pm 25.4 CALM 0 0 1008.1 - 0.0 - - - - - - -
02/09:00pm 25.5 NW 3 4 1007.7 - 0.0 - - - - - - -
02/08:30pm 26.1 CALM 0 0 1007.4 - 0.0 - - - - - - -
02/08:00pm 26.8 CALM 0 0 1007.1 - 0.0 - - - - - - -
02/07:30pm 27.1 NNE 3 5 1006.6 - 0.0 - - - - - - -
02/07:00pm 27.6 NE 4 5 1006.5 - 0.0 - - - - - - -
02/06:30pm 28.4 NE 5 8 1006.2 - 0.0 - - - - - - -
02/06:00pm 29.2 ENE 6 9 1005.7 - 0.0 - - - - - - -
02/05:30pm 29.7 E 6 10 1005.6 - 0.0 - - - - - - -
02/05:00pm 30.1 E 8 11 1005.5 - 0.0 - - - - - - -

Other Formats:

Comma delimited format used in spreadsheet applications
http://www.bom.gov.au/fwo/IDQ60701/IDQ60701.94186.axf

JavaScript Object Notation format (JSON) in row-major order
http://www.bom.gov.au/fwo/IDQ60701/IDQ60701.94186.json